createdAt,value
2018-01-29T00:00:26.996Z,97.13
2018-01-29T00:01:27.012Z,97.32
2018-01-29T00:02:27.026Z,97.51
2018-01-29T00:03:27.041Z,97.22
2018-01-29T00:04:27.065Z,97.41
2018-01-29T00:05:27.077Z,97.32
2018-01-29T00:06:27.102Z,97.80
2018-01-29T00:07:27.109Z,97.89
2018-01-29T00:08:27.129Z,97.13
2018-01-29T00:09:27.143Z,97.03
2018-01-29T00:10:27.159Z,98.03
2018-01-29T00:11:27.175Z,98.03
2018-01-29T00:12:27.190Z,97.89
2018-01-29T00:13:27.207Z,97.89
2018-01-29T00:14:27.221Z,97.51
2018-01-29T00:15:27.241Z,97.70
2018-01-29T00:16:27.257Z,97.70
2018-01-29T00:17:27.270Z,98.60
2018-01-29T00:18:27.289Z,98.51
2018-01-29T00:19:27.310Z,98.51
2018-01-29T00:20:27.321Z,97.75
2018-01-29T00:21:27.334Z,98.60
2018-01-29T00:22:27.354Z,98.18
2018-01-29T00:23:27.370Z,97.51
2018-01-29T00:24:27.386Z,97.32
2018-01-29T00:25:27.402Z,97.41
2018-01-29T00:26:27.417Z,97.51
2018-01-29T00:27:27.433Z,97.75
2018-01-29T00:28:27.503Z,98.60
2018-01-29T00:29:27.468Z,98.51
2018-01-29T00:30:27.483Z,98.60
2018-01-29T00:31:27.499Z,98.56
2018-01-29T00:32:27.515Z,98.60
2018-01-29T00:33:27.533Z,98.41
2018-01-29T00:34:27.549Z,98.70
2018-01-29T00:35:27.565Z,98.32
2018-01-29T00:36:27.581Z,98.79
2018-01-29T00:37:27.597Z,98.60
2018-01-29T00:38:27.612Z,98.60
2018-01-29T00:39:27.635Z,99.08
2018-01-29T00:40:27.644Z,98.79
2018-01-29T00:41:27.661Z,98.56
2018-01-29T00:42:27.679Z,97.70
2018-01-29T00:43:27.695Z,97.80
2018-01-29T00:44:27.709Z,97.70
2018-01-29T00:45:27.726Z,97.61
2018-01-29T00:46:27.742Z,98.32
2018-01-29T00:47:27.758Z,98.41
2018-01-29T00:48:27.775Z,98.36
2018-01-29T00:49:27.793Z,98.27
2018-01-29T00:50:27.805Z,98.36
2018-01-29T00:51:27.822Z,98.46
2018-01-29T00:52:27.842Z,98.79
2018-01-29T00:53:27.857Z,98.89
2018-01-29T00:54:27.872Z,99.65
2018-01-29T00:55:27.888Z,99.75
2018-01-29T00:56:27.905Z,99.75
2018-01-29T00:57:27.924Z,99.60
2018-01-29T00:58:27.937Z,99.94
2018-01-29T00:59:27.962Z,99.55
2018-01-29T01:00:27.978Z,99.27
2018-01-29T01:01:27.986Z,99.37
2018-01-29T01:02:28.004Z,99.18
2018-01-29T01:03:28.018Z,99.55
2018-01-29T01:04:28.035Z,99.94
2018-01-29T01:05:28.052Z,99.18
2018-01-29T01:06:28.068Z,99.55
2018-01-29T01:07:28.088Z,99.27
2018-01-29T01:08:28.101Z,99.18
2018-01-29T01:09:28.123Z,99.55
2018-01-29T01:10:28.132Z,99.75
2018-01-29T01:11:28.146Z,99.75
2018-01-29T01:12:28.165Z,99.99
2018-01-29T01:13:28.179Z,99.37
2018-01-29T01:14:28.199Z,99.46
2018-01-29T01:15:28.213Z,99.75
2018-01-29T01:16:28.228Z,99.84
2018-01-29T01:17:28.246Z,99.65
2018-01-29T01:18:28.267Z,99.27
2018-01-29T01:19:28.281Z,99.75
2018-01-29T01:20:28.301Z,99.94
2018-01-29T01:21:28.311Z,99.46
2018-01-29T01:22:28.324Z,99.55
2018-01-29T01:23:28.343Z,99.55
2018-01-29T01:24:28.385Z,99.55
2018-01-29T01:25:28.382Z,99.55
2018-01-29T01:26:28.389Z,99.55
2018-01-29T01:27:28.406Z,99.46
2018-01-29T01:28:28.422Z,99.99
2018-01-29T01:29:28.439Z,99.08
2018-01-29T01:30:28.454Z,99.55
2018-01-29T01:31:28.469Z,99.65
2018-01-29T01:32:28.495Z,99.18
2018-01-29T01:33:28.502Z,99.75
2018-01-29T01:34:28.518Z,99.18
2018-01-29T01:35:28.537Z,99.55
2018-01-29T01:36:28.553Z,99.99
2018-01-29T01:37:28.569Z,99.37
2018-01-29T01:38:28.584Z,98.60
2018-01-29T01:39:28.600Z,98.46
2018-01-29T01:40:28.615Z,98.60
2018-01-29T01:41:28.632Z,99.84
2018-01-29T01:42:28.648Z,99.37
2018-01-29T01:43:28.664Z,98.70
2018-01-29T01:44:28.681Z,98.99
2018-01-29T01:45:28.696Z,98.89
2018-01-29T01:46:28.711Z,98.99
2018-01-29T01:47:28.727Z,98.99
2018-01-29T01:48:28.744Z,99.46
2018-01-29T01:49:28.761Z,99.18
2018-01-29T01:50:28.779Z,99.27
2018-01-29T01:51:28.792Z,98.60
2018-01-29T01:52:28.810Z,98.70
2018-01-29T01:53:28.826Z,98.41
2018-01-29T01:54:28.839Z,98.46
2018-01-29T01:55:28.857Z,97.36
2018-01-29T01:56:28.874Z,97.84
2018-01-29T01:57:28.890Z,97.46
2018-01-29T01:58:28.907Z,97.08
2018-01-29T01:59:28.923Z,97.13
2018-01-29T02:00:28.938Z,97.32
2018-01-29T02:01:28.966Z,96.84
2018-01-29T02:02:28.970Z,97.08
2018-01-29T02:03:28.986Z,97.32
2018-01-29T02:04:29.007Z,96.94
2018-01-29T02:05:29.017Z,97.17
2018-01-29T02:06:29.035Z,97.36
2018-01-29T02:07:29.052Z,96.98
2018-01-29T02:08:29.075Z,96.80
2018-01-29T02:09:29.082Z,96.32
2018-01-29T02:10:29.112Z,95.89
2018-01-29T02:11:29.115Z,96.17
2018-01-29T02:12:29.130Z,96.17
2018-01-29T02:13:29.151Z,96.46
2018-01-29T02:14:29.164Z,95.27
2018-01-29T02:15:29.179Z,96.03
2018-01-29T02:16:29.196Z,96.12
2018-01-29T02:17:29.213Z,95.36
2018-01-29T02:18:29.227Z,94.84
2018-01-29T02:19:29.247Z,94.74
2018-01-29T02:20:29.263Z,94.93
2018-01-29T02:21:29.276Z,94.84
2018-01-29T02:22:29.292Z,95.22
2018-01-29T02:23:29.311Z,95.12
2018-01-29T02:24:29.327Z,94.70
2018-01-29T02:25:29.342Z,94.98
2018-01-29T02:26:29.358Z,94.79
2018-01-29T02:27:29.374Z,94.79
2018-01-29T02:28:29.390Z,94.08
2018-01-29T02:29:29.405Z,94.60
2018-01-29T02:30:29.422Z,94.98
2018-01-29T02:31:29.439Z,94.79
2018-01-29T02:32:29.455Z,93.93
2018-01-29T02:33:29.474Z,94.46
2018-01-29T02:34:29.491Z,93.98
2018-01-29T02:35:29.509Z,94.56
2018-01-29T02:36:29.521Z,94.17
2018-01-29T02:37:29.537Z,93.60
2018-01-29T02:38:29.555Z,93.41
2018-01-29T02:39:29.570Z,93.32
2018-01-29T02:40:29.588Z,93.17
2018-01-29T02:41:29.599Z,93.37
2018-01-29T02:42:29.617Z,94.37
2018-01-29T02:43:29.638Z,93.55
2018-01-29T02:44:29.655Z,93.70
2018-01-29T02:45:29.667Z,93.79
2018-01-29T02:46:29.680Z,93.70
2018-01-29T02:47:29.699Z,93.46
2018-01-29T02:48:29.716Z,94.13
2018-01-29T02:49:29.732Z,94.17
2018-01-29T02:50:29.747Z,93.41
2018-01-29T02:51:29.765Z,93.79
2018-01-29T02:52:29.782Z,93.88
2018-01-29T02:53:29.798Z,93.93
2018-01-29T02:54:29.811Z,93.65
2018-01-29T02:55:29.829Z,93.70
2018-01-29T02:56:29.846Z,93.60
2018-01-29T02:57:29.863Z,93.88
2018-01-29T02:58:29.876Z,93.41
2018-01-29T02:59:29.892Z,93.88
2018-01-29T03:00:29.910Z,93.03
2018-01-29T03:01:29.924Z,93.70
2018-01-29T03:02:29.940Z,93.51
2018-01-29T03:03:29.957Z,93.70
2018-01-29T03:04:29.975Z,93.41
2018-01-29T03:05:29.991Z,93.17
2018-01-29T03:06:30.017Z,93.55
2018-01-29T03:07:30.024Z,93.74
2018-01-29T03:08:30.041Z,93.17
2018-01-29T03:09:30.060Z,93.27
2018-01-29T03:10:30.073Z,93.46
2018-01-29T03:11:30.089Z,93.27
2018-01-29T03:12:30.105Z,93.65
2018-01-29T03:13:30.120Z,93.17
2018-01-29T03:14:30.137Z,92.74
2018-01-29T03:15:30.153Z,92.93
2018-01-29T03:16:30.169Z,92.69
2018-01-29T03:17:30.194Z,93.08
2018-01-29T03:18:30.205Z,92.55
2018-01-29T03:19:30.223Z,92.84
2018-01-29T03:20:30.233Z,92.84
2018-01-29T03:21:30.251Z,92.74
2018-01-29T03:22:30.266Z,92.69
2018-01-29T03:23:30.282Z,92.89
2018-01-29T03:24:30.303Z,93.27
2018-01-29T03:25:30.328Z,93.08
2018-01-29T03:26:30.333Z,92.98
2018-01-29T03:27:30.347Z,92.69
2018-01-29T03:28:30.363Z,93.17
2018-01-29T03:29:30.382Z,93.17
2018-01-29T03:30:30.397Z,93.37
2018-01-29T03:31:30.414Z,93.37
2018-01-29T03:32:30.429Z,92.60
2018-01-29T03:33:30.445Z,92.60
2018-01-29T03:34:30.462Z,92.65
2018-01-29T03:35:30.481Z,92.60
2018-01-29T03:36:30.494Z,92.32
2018-01-29T03:37:30.509Z,92.89
2018-01-29T03:38:30.528Z,92.69
2018-01-29T03:39:30.542Z,93.32
2018-01-29T03:40:30.563Z,92.65
2018-01-29T03:41:30.574Z,92.89
2018-01-29T03:42:30.592Z,93.08
2018-01-29T03:43:30.610Z,93.55
2018-01-29T03:44:30.625Z,92.89
2018-01-29T03:45:30.640Z,92.74
2018-01-29T03:46:30.662Z,92.89
2018-01-29T03:47:30.670Z,92.60
2018-01-29T03:48:30.686Z,92.79
2018-01-29T03:49:30.707Z,92.98
2018-01-29T03:50:30.720Z,92.60
2018-01-29T03:51:30.740Z,92.50
2018-01-29T03:52:30.759Z,92.79
2018-01-29T03:53:30.773Z,93.08
2018-01-29T03:54:30.790Z,93.27
2018-01-29T03:55:30.802Z,93.27
2018-01-29T03:56:30.816Z,92.98
2018-01-29T03:57:30.836Z,93.46
2018-01-29T03:58:30.852Z,93.65
2018-01-29T03:59:30.866Z,93.27
2018-01-29T04:00:30.885Z,92.89
2018-01-29T04:01:30.901Z,93.46
2018-01-29T04:02:30.913Z,93.46
2018-01-29T04:03:30.932Z,93.55
2018-01-29T04:04:30.947Z,93.17
2018-01-29T04:05:30.969Z,93.46
2018-01-29T04:06:30.978Z,93.74
2018-01-29T04:07:30.996Z,93.08
2018-01-29T04:08:31.009Z,93.37
2018-01-29T04:09:31.030Z,93.65
2018-01-29T04:10:31.043Z,93.37
2018-01-29T04:11:31.060Z,93.37
2018-01-29T04:12:31.086Z,93.46
2018-01-29T04:13:31.093Z,93.74
2018-01-29T04:14:31.107Z,93.65
2018-01-29T04:15:31.126Z,93.51
2018-01-29T04:16:31.142Z,92.84
2018-01-29T04:17:31.157Z,92.65
2018-01-29T04:18:31.179Z,92.69
2018-01-29T04:19:31.188Z,92.89
2018-01-29T04:20:31.205Z,93.12
2018-01-29T04:21:31.221Z,92.69
2018-01-29T04:22:31.239Z,93.46
2018-01-29T04:23:31.255Z,93.46
2018-01-29T04:24:31.269Z,93.22
2018-01-29T04:25:31.286Z,92.55
2018-01-29T04:26:31.301Z,92.55
2018-01-29T04:27:31.319Z,92.60
2018-01-29T04:28:31.340Z,93.55
2018-01-29T04:29:31.354Z,93.55
2018-01-29T04:30:31.365Z,93.27
2018-01-29T04:31:31.385Z,93.08
2018-01-29T04:32:31.428Z,93.46
2018-01-29T04:33:31.417Z,93.46
2018-01-29T04:34:31.458Z,92.60
2018-01-29T04:35:31.448Z,93.37
2018-01-29T04:36:31.473Z,93.17
2018-01-29T04:37:31.482Z,93.46
2018-01-29T04:38:31.497Z,93.32
2018-01-29T04:39:31.513Z,93.46
2018-01-29T04:40:31.532Z,93.08
2018-01-29T04:41:31.546Z,93.51
2018-01-29T04:42:31.563Z,93.27
2018-01-29T04:43:31.578Z,93.65
2018-01-29T04:44:31.596Z,93.22
2018-01-29T04:45:31.610Z,93.12
2018-01-29T04:46:31.624Z,93.60
2018-01-29T04:47:31.644Z,93.46
2018-01-29T04:48:31.660Z,92.93
2018-01-29T04:49:31.677Z,93.41
2018-01-29T04:50:31.693Z,92.74
2018-01-29T04:51:31.708Z,93.55
2018-01-29T04:52:31.726Z,93.37
2018-01-29T04:53:31.746Z,93.37
2018-01-29T04:54:31.756Z,93.12
2018-01-29T04:55:31.771Z,92.74
2018-01-29T04:56:31.790Z,92.46
2018-01-29T04:57:31.805Z,92.65
2018-01-29T04:58:31.819Z,92.46
2018-01-29T04:59:31.839Z,93.12
2018-01-29T05:00:31.856Z,92.74
2018-01-29T05:01:31.871Z,93.41
2018-01-29T05:02:31.889Z,92.65
2018-01-29T05:03:31.902Z,92.84
2018-01-29T05:04:31.926Z,92.55
2018-01-29T05:05:31.935Z,92.36
2018-01-29T05:06:31.950Z,91.69
2018-01-29T05:07:31.969Z,91.41
2018-01-29T05:08:31.983Z,91.60
2018-01-29T05:09:32.004Z,91.88
2018-01-29T05:10:32.015Z,92.27
2018-01-29T05:11:32.032Z,92.79
2018-01-29T05:12:32.054Z,92.32
2018-01-29T05:13:32.073Z,92.32
2018-01-29T05:14:32.080Z,92.36
2018-01-29T05:15:32.097Z,91.88
2018-01-29T05:16:32.113Z,91.69
2018-01-29T05:17:32.135Z,91.41
2018-01-29T05:18:32.147Z,91.41
2018-01-29T05:19:32.168Z,91.22
2018-01-29T05:20:32.179Z,91.50
2018-01-29T05:21:32.196Z,91.69
2018-01-29T05:22:32.212Z,91.50
2018-01-29T05:23:32.228Z,91.50
2018-01-29T05:24:32.247Z,91.69
2018-01-29T05:25:32.277Z,91.36
2018-01-29T05:26:32.277Z,91.79
2018-01-29T05:27:32.292Z,90.74
2018-01-29T05:28:32.312Z,89.89
2018-01-29T05:29:32.326Z,89.50
2018-01-29T05:30:32.345Z,90.26
2018-01-29T05:31:32.362Z,90.36
2018-01-29T05:32:32.381Z,89.89
2018-01-29T05:33:32.398Z,89.89
2018-01-29T05:34:32.410Z,90.45
2018-01-29T05:35:32.427Z,90.17
2018-01-29T05:36:32.449Z,90.08
2018-01-29T05:37:32.457Z,90.45
2018-01-29T05:38:32.474Z,89.12
2018-01-29T05:39:32.494Z,89.12
2018-01-29T05:40:32.505Z,89.26
2018-01-29T05:41:32.525Z,89.65
2018-01-29T05:42:32.537Z,89.03
2018-01-29T05:43:32.557Z,89.36
2018-01-29T05:44:32.580Z,89.40
2018-01-29T05:45:32.587Z,89.03
2018-01-29T05:46:32.606Z,89.22
2018-01-29T05:47:32.621Z,89.12
2018-01-29T05:48:32.636Z,89.22
2018-01-29T05:49:32.655Z,89.03
2018-01-29T05:50:32.669Z,88.74
2018-01-29T05:51:32.687Z,88.74
2018-01-29T05:52:32.702Z,88.64
2018-01-29T05:53:32.724Z,88.26
2018-01-29T05:54:32.733Z,88.55
2018-01-29T05:55:32.748Z,88.36
2018-01-29T05:56:32.765Z,88.55
2018-01-29T05:57:32.782Z,88.84
2018-01-29T05:58:32.798Z,88.64
2018-01-29T05:59:32.813Z,88.74
2018-01-29T06:00:32.831Z,88.74
2018-01-29T06:01:32.845Z,88.89
2018-01-29T06:02:32.859Z,88.84
2018-01-29T06:03:32.879Z,88.55
2018-01-29T06:04:32.894Z,88.74
2018-01-29T06:05:32.922Z,87.98
2018-01-29T06:06:32.925Z,87.40
2018-01-29T06:07:32.944Z,87.50
2018-01-29T06:08:32.961Z,87.98
2018-01-29T06:09:32.988Z,88.17
2018-01-29T06:10:32.993Z,88.17
2018-01-29T06:11:33.008Z,87.98
2018-01-29T06:12:33.025Z,88.07
2018-01-29T06:13:33.042Z,87.40
2018-01-29T06:14:33.058Z,87.31
2018-01-29T06:15:33.072Z,87.12
2018-01-29T06:16:33.090Z,88.26
2018-01-29T06:17:33.108Z,88.36
2018-01-29T06:18:33.124Z,88.26
2018-01-29T06:19:33.141Z,87.88
2018-01-29T06:20:33.173Z,87.21
2018-01-29T06:21:33.173Z,87.21
2018-01-29T06:22:33.188Z,87.79
2018-01-29T06:23:33.205Z,87.69
2018-01-29T06:24:33.222Z,87.60
2018-01-29T06:25:33.236Z,87.69
2018-01-29T06:26:33.251Z,88.07
2018-01-29T06:27:33.269Z,87.88
2018-01-29T06:28:33.286Z,87.50
2018-01-29T06:29:33.302Z,87.50
2018-01-29T06:30:33.321Z,87.21
2018-01-29T06:31:33.338Z,87.21
2018-01-29T06:32:33.351Z,87.88
2018-01-29T06:33:33.372Z,87.50
2018-01-29T06:34:33.384Z,87.79
2018-01-29T06:35:33.402Z,87.88
2018-01-29T06:36:33.416Z,87.31
2018-01-29T06:37:33.434Z,87.21
2018-01-29T06:38:33.449Z,87.40
2018-01-29T06:39:33.464Z,87.50
2018-01-29T06:40:33.483Z,87.40
2018-01-29T06:41:33.495Z,87.60
2018-01-29T06:42:33.513Z,87.60
2018-01-29T06:43:33.528Z,87.88
2018-01-29T06:44:33.545Z,87.40
2018-01-29T06:45:33.564Z,86.93
2018-01-29T06:46:33.577Z,86.93
2018-01-29T06:47:33.595Z,87.02
2018-01-29T06:48:33.613Z,86.74
2018-01-29T06:49:33.630Z,87.21
2018-01-29T06:50:33.643Z,86.93
2018-01-29T06:51:33.660Z,86.65
2018-01-29T06:52:33.678Z,86.83
2018-01-29T06:53:33.692Z,86.83
2018-01-29T06:54:33.709Z,87.31
2018-01-29T06:55:33.724Z,87.02
2018-01-29T06:56:33.741Z,87.21
2018-01-29T06:57:33.759Z,87.21
2018-01-29T06:58:33.777Z,87.31
2018-01-29T06:59:33.791Z,86.83
2018-01-29T07:00:33.808Z,86.36
2018-01-29T07:01:33.826Z,86.45
2018-01-29T07:02:33.840Z,86.83
2018-01-29T07:03:33.857Z,86.83
2018-01-29T07:04:33.872Z,86.26
2018-01-29T07:05:33.890Z,86.93
2018-01-29T07:06:33.904Z,87.12
2018-01-29T07:07:33.922Z,87.02
2018-01-29T07:08:33.938Z,87.50
2018-01-29T07:09:33.954Z,87.21
2018-01-29T07:10:33.968Z,87.40
2018-01-29T07:11:33.987Z,87.60
2018-01-29T07:12:34.007Z,87.88
2018-01-29T07:13:34.031Z,87.40
2018-01-29T07:14:34.034Z,86.55
2018-01-29T07:15:34.056Z,86.93
2018-01-29T07:16:34.069Z,87.02
2018-01-29T07:17:34.083Z,86.74
2018-01-29T07:18:34.100Z,86.93
2018-01-29T07:19:34.115Z,86.45
2018-01-29T07:20:34.135Z,86.74
2018-01-29T07:21:34.151Z,86.74
2018-01-29T07:22:34.166Z,86.65
2018-01-29T07:23:34.183Z,86.65
2018-01-29T07:24:34.198Z,86.65
2018-01-29T07:25:34.218Z,86.36
2018-01-29T07:26:34.231Z,86.74
2018-01-29T07:27:34.248Z,87.02
2018-01-29T07:28:34.263Z,87.12
2018-01-29T07:29:34.281Z,87.50
2018-01-29T07:30:34.297Z,86.93
2018-01-29T07:31:34.316Z,86.83
2018-01-29T07:32:34.331Z,86.83
2018-01-29T07:33:34.344Z,86.83
2018-01-29T07:34:34.362Z,86.83
2018-01-29T07:35:34.377Z,85.97
2018-01-29T07:36:34.393Z,86.55
2018-01-29T07:37:34.410Z,85.88
2018-01-29T07:38:34.427Z,86.36
2018-01-29T07:39:34.442Z,86.07
2018-01-29T07:40:34.461Z,85.50
2018-01-29T07:41:34.479Z,85.78
2018-01-29T07:42:34.492Z,85.60
2018-01-29T07:43:34.512Z,85.41
2018-01-29T07:44:34.526Z,85.41
2018-01-29T07:45:34.543Z,85.50
2018-01-29T07:46:34.559Z,85.69
2018-01-29T07:47:34.576Z,85.69
2018-01-29T07:48:34.591Z,85.69
2018-01-29T07:49:34.614Z,85.78
2018-01-29T07:50:34.624Z,86.26
2018-01-29T07:51:34.640Z,85.64
2018-01-29T07:52:34.657Z,85.16
2018-01-29T07:53:34.674Z,84.88
2018-01-29T07:54:34.690Z,85.41
2018-01-29T07:55:34.707Z,85.69
2018-01-29T07:56:34.724Z,85.97
2018-01-29T07:57:34.744Z,85.93
2018-01-29T07:58:34.756Z,85.41
2018-01-29T07:59:34.774Z,85.12
2018-01-29T08:00:34.789Z,85.21
2018-01-29T08:01:34.807Z,85.88
2018-01-29T08:02:34.823Z,85.69
2018-01-29T08:03:34.841Z,85.60
2018-01-29T08:04:34.855Z,86.26
2018-01-29T08:05:34.870Z,85.41
2018-01-29T08:06:34.891Z,85.78
2018-01-29T08:07:34.903Z,85.78
2018-01-29T08:08:34.920Z,85.78
2018-01-29T08:09:34.937Z,85.21
2018-01-29T08:10:34.955Z,85.60
2018-01-29T08:11:34.970Z,85.60
2018-01-29T08:12:34.988Z,85.31
2018-01-29T08:13:35.001Z,85.41
2018-01-29T08:14:35.020Z,85.50
2018-01-29T08:15:35.037Z,85.69
2018-01-29T08:16:35.053Z,85.21
2018-01-29T08:17:35.071Z,85.88
2018-01-29T08:18:35.084Z,85.69
2018-01-29T08:19:35.100Z,85.60
2018-01-29T08:20:35.120Z,84.83
2018-01-29T08:21:35.135Z,84.45
2018-01-29T08:22:35.149Z,84.83
2018-01-29T08:23:35.168Z,84.83
2018-01-29T08:24:35.184Z,85.78
2018-01-29T08:25:35.201Z,85.50
2018-01-29T08:26:35.216Z,85.02
2018-01-29T08:27:35.234Z,85.02
2018-01-29T08:28:35.252Z,84.83
2018-01-29T08:29:35.268Z,84.83
2018-01-29T08:30:35.283Z,84.45
2018-01-29T08:31:35.298Z,84.64
2018-01-29T08:32:35.315Z,84.92
2018-01-29T08:33:35.331Z,84.74
2018-01-29T08:34:35.351Z,84.74
2018-01-29T08:35:35.363Z,84.20
2018-01-29T08:36:35.385Z,83.97
2018-01-29T08:37:35.395Z,84.26
2018-01-29T08:38:35.414Z,84.59
2018-01-29T08:39:35.428Z,84.30
2018-01-29T08:40:35.467Z,84.26
2018-01-29T08:41:35.461Z,84.45
2018-01-29T08:42:35.477Z,84.26
2018-01-29T08:43:35.494Z,84.74
2018-01-29T08:44:35.511Z,84.92
2018-01-29T08:45:35.532Z,84.83
2018-01-29T08:46:35.543Z,84.64
2018-01-29T08:47:35.561Z,84.83
2018-01-29T08:48:35.579Z,84.74
2018-01-29T08:49:35.594Z,84.45
2018-01-29T08:50:35.608Z,84.55
2018-01-29T08:51:35.626Z,84.26
2018-01-29T08:52:35.644Z,83.78
2018-01-29T08:53:35.660Z,83.40
2018-01-29T08:54:35.678Z,83.97
2018-01-29T08:55:35.693Z,84.36
2018-01-29T08:56:35.710Z,83.97
2018-01-29T08:57:35.727Z,83.97
2018-01-29T08:58:35.740Z,83.97
2018-01-29T08:59:35.757Z,84.07
2018-01-29T09:00:35.775Z,83.31
2018-01-29T09:01:35.793Z,83.31
2018-01-29T09:02:35.806Z,83.31
2018-01-29T09:03:35.826Z,84.07
2018-01-29T09:04:35.839Z,83.97
2018-01-29T09:05:35.856Z,84.55
2018-01-29T09:06:35.876Z,83.78
2018-01-29T09:07:35.892Z,83.78
2018-01-29T09:08:35.909Z,83.88
2018-01-29T09:09:35.923Z,84.16
2018-01-29T09:10:35.939Z,83.97
2018-01-29T09:11:35.957Z,82.97
2018-01-29T09:12:35.972Z,82.97
2018-01-29T09:13:35.992Z,83.25
2018-01-29T09:14:36.003Z,83.16
2018-01-29T09:15:36.023Z,83.12
2018-01-29T09:16:36.041Z,82.73
2018-01-29T09:17:36.059Z,83.40
2018-01-29T09:18:36.071Z,82.92
2018-01-29T09:19:36.086Z,83.06
2018-01-29T09:20:36.104Z,82.68
2018-01-29T09:21:36.121Z,82.20
2018-01-29T09:22:36.140Z,82.20
2018-01-29T09:23:36.152Z,82.40
2018-01-29T09:24:36.177Z,82.11
2018-01-29T09:25:36.187Z,82.07
2018-01-29T09:26:36.200Z,83.12
2018-01-29T09:27:36.217Z,83.21
2018-01-29T09:28:36.236Z,82.64
2018-01-29T09:29:36.253Z,82.78
2018-01-29T09:30:36.269Z,83.02
2018-01-29T09:31:36.315Z,83.50
2018-01-29T09:32:36.302Z,83.31
2018-01-29T09:33:36.322Z,83.40
2018-01-29T09:34:36.335Z,83.59
2018-01-29T09:35:36.350Z,83.31
2018-01-29T09:36:36.367Z,83.12
2018-01-29T09:37:36.389Z,82.97
2018-01-29T09:38:36.401Z,82.97
2018-01-29T09:39:36.423Z,82.97
2018-01-29T09:40:36.434Z,82.97
2018-01-29T09:41:36.449Z,82.49
2018-01-29T09:42:36.464Z,82.11
2018-01-29T09:43:36.481Z,82.68
2018-01-29T09:44:36.500Z,83.16
2018-01-29T09:45:36.517Z,83.16
2018-01-29T09:46:36.536Z,82.97
2018-01-29T09:47:36.577Z,82.49
2018-01-29T09:48:36.565Z,82.40
2018-01-29T09:49:36.583Z,82.11
2018-01-29T09:50:36.599Z,82.20
2018-01-29T09:51:36.614Z,82.49
2018-01-29T09:52:36.631Z,82.17
2018-01-29T09:53:36.651Z,82.17
2018-01-29T09:54:36.665Z,82.49
2018-01-29T09:55:36.680Z,82.49
2018-01-29T09:56:36.703Z,82.92
2018-01-29T09:57:36.715Z,83.12
2018-01-29T09:58:36.731Z,83.50
2018-01-29T09:59:36.748Z,83.06
2018-01-29T10:00:36.770Z,82.68
2018-01-29T10:01:36.785Z,82.54
2018-01-29T10:02:36.801Z,82.92
2018-01-29T10:03:36.813Z,82.64
2018-01-29T10:04:36.836Z,82.92
2018-01-29T10:05:36.848Z,83.12
2018-01-29T10:06:36.862Z,82.45
2018-01-29T10:07:36.881Z,82.17
2018-01-29T10:08:36.896Z,82.17
2018-01-29T10:09:36.912Z,83.31
2018-01-29T10:10:36.928Z,83.12
2018-01-29T10:11:36.946Z,83.31
2018-01-29T10:12:36.960Z,82.64
2018-01-29T10:13:36.982Z,82.83
2018-01-29T10:14:36.993Z,82.73
2018-01-29T10:15:37.056Z,82.64
2018-01-29T10:16:37.029Z,82.30
2018-01-29T10:17:37.047Z,82.11
2018-01-29T10:18:37.061Z,81.88
2018-01-29T10:19:37.080Z,81.97
2018-01-29T10:20:37.093Z,81.78
2018-01-29T10:21:37.120Z,82.26
2018-01-29T10:22:37.126Z,82.17
2018-01-29T10:23:37.145Z,82.20
2018-01-29T10:24:37.163Z,82.26
2018-01-29T10:25:37.176Z,82.35
2018-01-29T10:26:37.195Z,82.35
2018-01-29T10:27:37.209Z,82.26
2018-01-29T10:28:37.226Z,82.17
2018-01-29T10:29:37.242Z,82.07
2018-01-29T10:30:37.258Z,81.97
2018-01-29T10:31:37.276Z,82.54
2018-01-29T10:32:37.291Z,82.17
2018-01-29T10:33:37.309Z,82.30
2018-01-29T10:34:37.328Z,82.26
2018-01-29T10:35:37.342Z,82.07
2018-01-29T10:36:37.357Z,82.54
2018-01-29T10:37:37.376Z,82.17
2018-01-29T10:38:37.391Z,82.07
2018-01-29T10:39:37.411Z,82.64
2018-01-29T10:40:37.424Z,82.73
2018-01-29T10:41:37.441Z,82.45
2018-01-29T10:42:37.454Z,82.17
2018-01-29T10:43:37.475Z,82.07
2018-01-29T10:44:37.488Z,82.30
2018-01-29T10:45:37.519Z,82.17
2018-01-29T10:46:37.526Z,82.35
2018-01-29T10:47:37.541Z,82.26
2018-01-29T10:48:37.555Z,83.02
2018-01-29T10:49:37.573Z,82.73
2018-01-29T10:50:37.587Z,82.54
2018-01-29T10:51:37.605Z,82.35
2018-01-29T10:52:37.623Z,82.54
2018-01-29T10:53:37.637Z,82.17
2018-01-29T10:54:37.653Z,82.20
2018-01-29T10:55:37.670Z,82.83
2018-01-29T10:56:37.687Z,82.17
2018-01-29T10:57:37.706Z,82.40
2018-01-29T10:58:37.720Z,82.35
2018-01-29T10:59:37.739Z,82.45
2018-01-29T11:00:37.754Z,82.35
2018-01-29T11:01:37.769Z,82.35
2018-01-29T11:02:37.786Z,82.20
2018-01-29T11:03:37.802Z,82.17
2018-01-29T11:04:37.820Z,81.97
2018-01-29T11:05:37.835Z,82.07
2018-01-29T11:06:37.857Z,82.07
2018-01-29T11:07:37.871Z,81.97
2018-01-29T11:08:37.885Z,82.07
2018-01-29T11:09:37.904Z,82.07
2018-01-29T11:10:37.920Z,82.26
2018-01-29T11:11:37.936Z,82.07
2018-01-29T11:12:37.950Z,81.68
2018-01-29T11:13:37.970Z,81.97
2018-01-29T11:14:37.988Z,81.88
2018-01-29T11:15:38.001Z,81.97
2018-01-29T11:16:38.018Z,81.97
2018-01-29T11:17:38.035Z,81.59
2018-01-29T11:18:38.049Z,81.78
2018-01-29T11:19:38.066Z,81.97
2018-01-29T11:20:38.083Z,82.07
2018-01-29T11:21:38.101Z,82.26
2018-01-29T11:22:38.115Z,82.45
2018-01-29T11:23:38.132Z,82.17
2018-01-29T11:24:38.146Z,82.07
2018-01-29T11:25:38.166Z,82.45
2018-01-29T11:26:38.179Z,82.92
2018-01-29T11:27:38.199Z,83.02
2018-01-29T11:28:38.212Z,83.97
2018-01-29T11:29:38.232Z,83.69
2018-01-29T11:30:38.246Z,83.31
2018-01-29T11:31:38.264Z,83.21
2018-01-29T11:32:38.282Z,83.78
2018-01-29T11:33:38.297Z,83.40
2018-01-29T11:34:38.310Z,83.50
2018-01-29T11:35:38.326Z,83.50
2018-01-29T11:36:38.346Z,83.69
2018-01-29T11:37:38.361Z,83.40
2018-01-29T11:38:38.376Z,83.40
2018-01-29T11:39:38.393Z,82.73
2018-01-29T11:40:38.411Z,82.83
2018-01-29T11:41:38.428Z,83.12
2018-01-29T11:42:38.442Z,83.69
2018-01-29T11:43:38.459Z,82.92
2018-01-29T11:44:38.477Z,82.92
2018-01-29T11:45:38.491Z,83.40
2018-01-29T11:46:38.509Z,83.40
2018-01-29T11:47:38.524Z,83.31
2018-01-29T11:48:38.545Z,83.31
2018-01-29T11:49:38.559Z,83.40
2018-01-29T11:50:38.574Z,83.50
2018-01-29T11:51:38.592Z,83.21
2018-01-29T11:52:38.608Z,82.92
2018-01-29T11:53:38.622Z,83.02
2018-01-29T11:54:38.637Z,83.02
2018-01-29T11:55:38.660Z,82.92
2018-01-29T11:56:38.675Z,83.21
2018-01-29T11:57:38.690Z,82.26
2018-01-29T11:58:38.706Z,82.54
2018-01-29T11:59:38.721Z,82.45
2018-01-29T12:00:38.742Z,82.92
2018-01-29T12:01:38.753Z,82.35
2018-01-29T12:02:38.771Z,82.40
2018-01-29T12:03:38.788Z,81.40
2018-01-29T12:04:38.802Z,81.40
2018-01-29T12:05:38.820Z,81.49
2018-01-29T12:06:38.836Z,81.49
2018-01-29T12:07:38.860Z,81.63
2018-01-29T12:08:38.869Z,81.35
2018-01-29T12:09:38.887Z,81.12
2018-01-29T12:10:38.900Z,81.78
2018-01-29T12:11:38.920Z,81.82
2018-01-29T12:12:38.934Z,81.68
2018-01-29T12:13:38.950Z,81.54
2018-01-29T12:14:38.969Z,81.25
2018-01-29T12:15:38.984Z,81.44
2018-01-29T12:16:38.999Z,81.25
2018-01-29T12:17:39.016Z,80.87
2018-01-29T12:18:39.035Z,80.96
2018-01-29T12:19:39.102Z,81.25
2018-01-29T12:20:39.068Z,81.30
2018-01-29T12:21:39.089Z,81.92
2018-01-29T12:22:39.097Z,81.25
2018-01-29T12:23:39.116Z,81.15
2018-01-29T12:24:39.135Z,81.35
2018-01-29T12:25:39.151Z,81.06
2018-01-29T12:26:39.166Z,81.25
2018-01-29T12:27:39.185Z,81.54
2018-01-29T12:28:39.202Z,80.49
2018-01-29T12:29:39.215Z,80.87
2018-01-29T12:30:39.231Z,80.58
2018-01-29T12:31:39.249Z,80.49
2018-01-29T12:32:39.266Z,80.83
2018-01-29T12:33:39.282Z,81.78
2018-01-29T12:34:39.303Z,81.15
2018-01-29T12:35:39.316Z,81.63
2018-01-29T12:36:39.335Z,81.59
2018-01-29T12:37:39.352Z,81.68
2018-01-29T12:38:39.365Z,82.20
2018-01-29T12:39:39.384Z,81.54
2018-01-29T12:40:39.401Z,81.59
2018-01-29T12:41:39.416Z,81.02
2018-01-29T12:42:39.431Z,81.68
2018-01-29T12:43:39.446Z,81.12
2018-01-29T12:44:39.461Z,81.78
2018-01-29T12:45:39.481Z,81.30
2018-01-29T12:46:39.497Z,81.21
2018-01-29T12:47:39.513Z,81.97
2018-01-29T12:48:39.529Z,81.54
2018-01-29T12:49:39.546Z,81.49
2018-01-29T12:50:39.563Z,81.49
2018-01-29T12:51:39.580Z,81.68
2018-01-29T12:52:39.595Z,81.15